LFBO

Toulouse-Blagnac Airport

Airport
ICAO code
LFBO
IATA Code
TLS
Summary
ICAO Region
EUR
ICAO Territory
Location

Blagnac, Midi-Pyrenees

Serving
Toulouse
Elevation
497 ft
Coordinates
43° 37' 35" N , 1° 21' 52" E
KCC
Cfb
Metar
Observation
LFBO 171330Z AUTO 27007KT 240V320 9999 BKN047/// OVC054/// ///TCU 25/14 Q1011 TEMPO FEW060CB
Station
Toulouse / Blagnac
Date/Time
2022-08-17 13:30:00
Wind direction
270°
Wind speed
07 kts
Lowest cloud amount
broken clouds
Temperature
25°C
Dew point
14°C
Humidity
50%
QNH
1011 hPa
Weather condition
n/a

Description

International airport serving city of Toulouse, France.

Climatology

Temperate Marine climate/Oceanic climate (Köppen climate classification Cfb). Moderately cool summer and comparatively warm winter with a temperature range of only 14°C. Prevailing south-westerly winds from the Atlantic Ocean.

Runways

Designator Length Width Surface Rops
14L/32R 3000 45 ASP Yes/Yes
14R/32L 3500 45 ASP Yes/Yes

Airport map

Aerial View

Airport accidents

SKYbrary Partners:

Safety knowledge contributed by: